sensor_id;sensor_type;location;lat;lon;timestamp;temperature;humidity
14769;DHT22;7476;49.404;11.152;2023-05-23T00:00:47;13.20;99.90
14769;DHT22;7476;49.404;11.152;2023-05-23T00:03:16;13.20;99.90
14769;DHT22;7476;49.404;11.152;2023-05-23T00:05:47;13.20;99.90
14769;DHT22;7476;49.404;11.152;2023-05-23T00:08:14;13.40;99.90
14769;DHT22;7476;49.404;11.152;2023-05-23T00:10:43;13.30;99.90
14769;DHT22;7476;49.404;11.152;2023-05-23T00:13:10;13.20;99.90
14769;DHT22;7476;49.404;11.152;2023-05-23T00:15:39;13.10;99.90
14769;DHT22;7476;49.404;11.152;2023-05-23T00:18:06;13.10;99.90
14769;DHT22;7476;49.404;11.152;2023-05-23T00:20:35;13.10;99.90
14769;DHT22;7476;49.404;11.152;2023-05-23T00:23:05;13.10;99.90
14769;DHT22;7476;49.404;11.152;2023-05-23T00:25:33;13.00;99.90
14769;DHT22;7476;49.404;11.152;2023-05-23T00:28:01;13.00;99.90
14769;DHT22;7476;49.404;11.152;2023-05-23T00:30:30;13.10;99.90
14769;DHT22;7476;49.404;11.152;2023-05-23T00:32:57;13.10;99.90
14769;DHT22;7476;49.404;11.152;2023-05-23T00:35:25;13.20;99.90
14769;DHT22;7476;49.404;11.152;2023-05-23T00:37:52;13.20;99.90
14769;DHT22;7476;49.404;11.152;2023-05-23T00:40:19;13.20;99.90
14769;DHT22;7476;49.404;11.152;2023-05-23T00:42:47;13.10;99.90
14769;DHT22;7476;49.404;11.152;2023-05-23T00:45:15;13.40;99.90
14769;DHT22;7476;49.404;11.152;2023-05-23T00:47:43;13.60;99.90
14769;DHT22;7476;49.404;11.152;2023-05-23T00:50:11;13.90;99.90
14769;DHT22;7476;49.404;11.152;2023-05-23T00:52:43;14.30;99.90
14769;DHT22;7476;49.404;11.152;2023-05-23T00:55:11;14.50;99.90
14769;DHT22;7476;49.404;11.152;2023-05-23T00:57:39;14.60;99.90
14769;DHT22;7476;49.404;11.152;2023-05-23T01:00:09;14.70;99.90
14769;DHT22;7476;49.404;11.152;2023-05-23T01:02:41;14.80;99.90
14769;DHT22;7476;49.404;11.152;2023-05-23T01:05:09;14.90;99.90
14769;DHT22;7476;49.404;11.152;2023-05-23T01:07:38;14.90;99.90
14769;DHT22;7476;49.404;11.152;2023-05-23T01:10:06;15.00;99.90
14769;DHT22;7476;49.404;11.152;2023-05-23T01:12:40;15.00;99.90
14769;DHT22;7476;49.404;11.152;2023-05-23T01:15:10;14.90;99.90
14769;DHT22;7476;49.404;11.152;2023-05-23T01:17:44;14.80;99.90
14769;DHT22;7476;49.404;11.152;2023-05-23T01:20:20;14.70;99.90
14769;DHT22;7476;49.404;11.152;2023-05-23T01:23:12;14.50;99.90
14769;DHT22;7476;49.404;11.152;2023-05-23T01:25:53;14.30;99.90
14769;DHT22;7476;49.404;11.152;2023-05-23T01:28:27;14.00;99.90
14769;DHT22;7476;49.404;11.152;2023-05-23T01:30:57;13.80;99.90
14769;DHT22;7476;49.404;11.152;2023-05-23T01:33:24;13.60;99.90
14769;DHT22;7476;49.404;11.152;2023-05-23T01:35:52;13.30;99.90
14769;DHT22;7476;49.404;11.152;2023-05-23T01:38:19;13.20;99.90
14769;DHT22;7476;49.404;11.152;2023-05-23T01:40:45;13.10;99.90
14769;DHT22;7476;49.404;11.152;2023-05-23T01:43:12;12.90;99.90
14769;DHT22;7476;49.404;11.152;2023-05-23T01:45:40;12.90;99.90
14769;DHT22;7476;49.404;11.152;2023-05-23T01:48:08;12.90;99.90
14769;DHT22;7476;49.404;11.152;2023-05-23T01:50:36;12.80;99.90
14769;DHT22;7476;49.404;11.152;2023-05-23T01:53:03;12.90;99.90
14769;DHT22;7476;49.404;11.152;2023-05-23T01:55:30;12.80;99.90
14769;DHT22;7476;49.404;11.152;2023-05-23T01:57:58;12.90;99.90
14769;DHT22;7476;49.404;11.152;2023-05-23T02:00:26;13.00;99.90
14769;DHT22;7476;49.404;11.152;2023-05-23T02:02:54;13.10;99.90
14769;DHT22;7476;49.404;11.152;2023-05-23T02:05:21;13.10;99.90
14769;DHT22;7476;49.404;11.152;2023-05-23T02:07:47;13.20;99.90
14769;DHT22;7476;49.404;11.152;2023-05-23T02:10:14;13.30;99.90
14769;DHT22;7476;49.404;11.152;2023-05-23T02:12:40;13.40;99.90
14769;DHT22;7476;49.404;11.152;2023-05-23T02:15:08;13.40;99.90
14769;DHT22;7476;49.404;11.152;2023-05-23T02:17:35;13.50;99.90
14769;DHT22;7476;49.404;11.152;2023-05-23T02:20:05;13.60;99.90
14769;DHT22;7476;49.404;11.152;2023-05-23T02:22:32;13.70;99.90
14769;DHT22;7476;49.404;11.152;2023-05-23T02:24:59;13.90;99.90
14769;DHT22;7476;49.404;11.152;2023-05-23T02:27:26;13.90;99.90
14769;DHT22;7476;49.404;11.152;2023-05-23T02:29:53;13.90;99.90
14769;DHT22;7476;49.404;11.152;2023-05-23T02:32:19;13.90;99.90
14769;DHT22;7476;49.404;11.152;2023-05-23T02:34:46;13.80;99.90
14769;DHT22;7476;49.404;11.152;2023-05-23T02:37:16;13.70;99.90
14769;DHT22;7476;49.404;11.152;2023-05-23T02:39:42;13.60;99.90
14769;DHT22;7476;49.404;11.152;2023-05-23T02:42:09;13.60;99.90
14769;DHT22;7476;49.404;11.152;2023-05-23T02:44:36;13.50;99.90
14769;DHT22;7476;49.404;11.152;2023-05-23T02:47:03;13.50;99.90
14769;DHT22;7476;49.404;11.152;2023-05-23T02:49:29;13.50;99.90
14769;DHT22;7476;49.404;11.152;2023-05-23T02:51:56;13.50;99.90
14769;DHT22;7476;49.404;11.152;2023-05-23T02:54:24;13.40;99.90
14769;DHT22;7476;49.404;11.152;2023-05-23T02:56:51;13.40;99.90
14769;DHT22;7476;49.404;11.152;2023-05-23T02:59:20;13.30;99.90
14769;DHT22;7476;49.404;11.152;2023-05-23T03:01:47;13.20;99.90
14769;DHT22;7476;49.404;11.152;2023-05-23T03:04:14;13.30;99.90
14769;DHT22;7476;49.404;11.152;2023-05-23T03:06:40;13.20;99.90
14769;DHT22;7476;49.404;11.152;2023-05-23T03:09:09;13.20;99.90
14769;DHT22;7476;49.404;11.152;2023-05-23T03:11:38;13.20;99.90
14769;DHT22;7476;49.404;11.152;2023-05-23T03:14:05;13.40;99.90
14769;DHT22;7476;49.404;11.152;2023-05-23T03:16:31;13.70;99.90
14769;DHT22;7476;49.404;11.152;2023-05-23T03:18:58;13.80;99.90
14769;DHT22;7476;49.404;11.152;2023-05-23T03:21:25;13.90;99.90
14769;DHT22;7476;49.404;11.152;2023-05-23T03:23:51;14.20;99.90
14769;DHT22;7476;49.404;11.152;2023-05-23T03:26:18;14.30;99.90
14769;DHT22;7476;49.404;11.152;2023-05-23T03:28:47;14.40;99.90
14769;DHT22;7476;49.404;11.152;2023-05-23T03:31:14;14.60;99.90
14769;DHT22;7476;49.404;11.152;2023-05-23T03:33:40;14.60;99.90
14769;DHT22;7476;49.404;11.152;2023-05-23T03:36:07;14.70;99.90
14769;DHT22;7476;49.404;11.152;2023-05-23T03:38:34;14.80;99.90
14769;DHT22;7476;49.404;11.152;2023-05-23T03:41:01;14.90;99.90
14769;DHT22;7476;49.404;11.152;2023-05-23T03:43:27;15.00;99.90
14769;DHT22;7476;49.404;11.152;2023-05-23T03:45:55;15.00;99.90
14769;DHT22;7476;49.404;11.152;2023-05-23T03:48:22;15.10;99.90
14769;DHT22;7476;49.404;11.152;2023-05-23T03:50:49;15.10;99.90
14769;DHT22;7476;49.404;11.152;2023-05-23T03:53:15;15.20;99.90
14769;DHT22;7476;49.404;11.152;2023-05-23T03:55:42;15.20;99.90
14769;DHT22;7476;49.404;11.152;2023-05-23T03:58:09;15.30;99.90
14769;DHT22;7476;49.404;11.152;2023-05-23T04:00:36;15.30;99.90
14769;DHT22;7476;49.404;11.152;2023-05-23T04:03:04;15.30;99.90
14769;DHT22;7476;49.404;11.152;2023-05-23T04:05:31;15.40;99.90
14769;DHT22;7476;49.404;11.152;2023-05-23T04:07:57;15.50;99.90
14769;DHT22;7476;49.404;11.152;2023-05-23T04:10:25;15.50;99.90
14769;DHT22;7476;49.404;11.152;2023-05-23T04:12:52;15.50;99.90
14769;DHT22;7476;49.404;11.152;2023-05-23T04:15:19;15.50;99.90
14769;DHT22;7476;49.404;11.152;2023-05-23T04:17:46;15.50;99.90
14769;DHT22;7476;49.404;11.152;2023-05-23T04:20:14;15.60;99.90
14769;DHT22;7476;49.404;11.152;2023-05-23T04:22:41;15.60;99.90
14769;DHT22;7476;49.404;11.152;2023-05-23T04:25:08;15.70;99.90
14769;DHT22;7476;49.404;11.152;2023-05-23T04:27:35;15.80;99.90
14769;DHT22;7476;49.404;11.152;2023-05-23T04:30:05;15.90;99.90
14769;DHT22;7476;49.404;11.152;2023-05-23T04:32:33;16.10;99.90
14769;DHT22;7476;49.404;11.152;2023-05-23T04:35:00;16.30;99.90
14769;DHT22;7476;49.404;11.152;2023-05-23T04:37:30;16.60;99.90
14769;DHT22;7476;49.404;11.152;2023-05-23T04:39:57;16.80;99.90
14769;DHT22;7476;49.404;11.152;2023-05-23T04:42:24;16.80;99.90
14769;DHT22;7476;49.404;11.152;2023-05-23T04:44:51;16.80;99.90
14769;DHT22;7476;49.404;11.152;2023-05-23T04:47:17;16.80;99.90
14769;DHT22;7476;49.404;11.152;2023-05-23T04:49:44;16.90;99.90
14769;DHT22;7476;49.404;11.152;2023-05-23T04:52:12;16.90;99.90
14769;DHT22;7476;49.404;11.152;2023-05-23T04:54:41;16.90;99.90
14769;DHT22;7476;49.404;11.152;2023-05-23T04:57:09;16.80;99.90
14769;DHT22;7476;49.404;11.152;2023-05-23T04:59:36;16.90;99.90
14769;DHT22;7476;49.404;11.152;2023-05-23T05:02:04;16.90;99.90
14769;DHT22;7476;49.404;11.152;2023-05-23T05:04:31;16.90;99.90
14769;DHT22;7476;49.404;11.152;2023-05-23T05:06:57;16.90;99.90
14769;DHT22;7476;49.404;11.152;2023-05-23T05:09:24;16.80;99.90
14769;DHT22;7476;49.404;11.152;2023-05-23T05:11:52;16.70;99.90
14769;DHT22;7476;49.404;11.152;2023-05-23T05:14:19;16.80;99.90
14769;DHT22;7476;49.404;11.152;2023-05-23T05:16:46;16.90;99.90
14769;DHT22;7476;49.404;11.152;2023-05-23T05:19:14;17.20;99.90
14769;DHT22;7476;49.404;11.152;2023-05-23T05:21:41;17.80;99.90
14769;DHT22;7476;49.404;11.152;2023-05-23T05:24:07;18.40;99.90
14769;DHT22;7476;49.404;11.152;2023-05-23T05:26:35;19.10;99.90
14769;DHT22;7476;49.404;11.152;2023-05-23T05:29:03;19.20;99.90
14769;DHT22;7476;49.404;11.152;2023-05-23T05:31:30;19.80;99.90
14769;DHT22;7476;49.404;11.152;2023-05-23T05:33:57;20.10;99.90
14769;DHT22;7476;49.404;11.152;2023-05-23T05:36:24;20.50;99.90
14769;DHT22;7476;49.404;11.152;2023-05-23T05:38:50;20.70;99.90
14769;DHT22;7476;49.404;11.152;2023-05-23T05:41:17;20.70;99.90
14769;DHT22;7476;49.404;11.152;2023-05-23T05:43:44;20.70;99.90
14769;DHT22;7476;49.404;11.152;2023-05-23T05:46:12;20.40;99.90
14769;DHT22;7476;49.404;11.152;2023-05-23T05:48:39;20.50;99.90
14769;DHT22;7476;49.404;11.152;2023-05-23T05:51:06;20.10;99.90
14769;DHT22;7476;49.404;11.152;2023-05-23T05:53:32;19.80;99.90
14769;DHT22;7476;49.404;11.152;2023-05-23T05:55:59;19.40;99.90
14769;DHT22;7476;49.404;11.152;2023-05-23T05:58:26;19.20;99.90
14769;DHT22;7476;49.404;11.152;2023-05-23T06:00:54;19.10;99.90
14769;DHT22;7476;49.404;11.152;2023-05-23T06:03:22;19.10;99.90
14769;DHT22;7476;49.404;11.152;2023-05-23T06:05:48;19.30;99.90
14769;DHT22;7476;49.404;11.152;2023-05-23T06:08:15;19.60;99.90
14769;DHT22;7476;49.404;11.152;2023-05-23T06:10:42;19.40;99.90
14769;DHT22;7476;49.404;11.152;2023-05-23T06:13:09;19.70;99.90
14769;DHT22;7476;49.404;11.152;2023-05-23T06:15:35;20.20;99.90
14769;DHT22;7476;49.404;11.152;2023-05-23T06:18:02;20.70;99.90
14769;DHT22;7476;49.404;11.152;2023-05-23T06:20:30;20.90;99.90
14769;DHT22;7476;49.404;11.152;2023-05-23T06:22:57;20.80;99.90
14769;DHT22;7476;49.404;11.152;2023-05-23T06:25:24;20.60;99.90
14769;DHT22;7476;49.404;11.152;2023-05-23T06:27:51;20.20;99.90
14769;DHT22;7476;49.404;11.152;2023-05-23T06:30:17;20.70;99.90
14769;DHT22;7476;49.404;11.152;2023-05-23T06:32:44;21.00;99.90
14769;DHT22;7476;49.404;11.152;2023-05-23T06:35:11;21.70;99.90
14769;DHT22;7476;49.404;11.152;2023-05-23T06:37:39;21.80;99.90
14769;DHT22;7476;49.404;11.152;2023-05-23T06:40:10;21.00;99.90
14769;DHT22;7476;49.404;11.152;2023-05-23T06:42:37;21.60;99.90
14769;DHT22;7476;49.404;11.152;2023-05-23T06:45:04;22.20;99.90
14769;DHT22;7476;49.404;11.152;2023-05-23T06:47:31;22.20;99.90
14769;DHT22;7476;49.404;11.152;2023-05-23T06:49:58;22.40;99.90
14769;DHT22;7476;49.404;11.152;2023-05-23T06:52:24;22.70;99.90
14769;DHT22;7476;49.404;11.152;2023-05-23T06:54:52;22.30;99.90
14769;DHT22;7476;49.404;11.152;2023-05-23T06:57:19;22.70;99.90
14769;DHT22;7476;49.404;11.152;2023-05-23T06:59:46;23.30;99.90
14769;DHT22;7476;49.404;11.152;2023-05-23T07:02:13;23.70;99.90
14769;DHT22;7476;49.404;11.152;2023-05-23T07:04:40;23.90;99.90
14769;DHT22;7476;49.404;11.152;2023-05-23T07:07:06;24.10;99.90
14769;DHT22;7476;49.404;11.152;2023-05-23T07:09:33;22.90;99.90
14769;DHT22;7476;49.404;11.152;2023-05-23T07:12:01;21.90;99.90
14769;DHT22;7476;49.404;11.152;2023-05-23T07:14:27;21.10;99.90
14769;DHT22;7476;49.404;11.152;2023-05-23T07:16:54;20.60;99.90
14769;DHT22;7476;49.404;11.152;2023-05-23T07:19:21;20.40;99.90
14769;DHT22;7476;49.404;11.152;2023-05-23T07:21:47;20.10;99.90
14769;DHT22;7476;49.404;11.152;2023-05-23T07:24:14;20.20;99.90
14769;DHT22;7476;49.404;11.152;2023-05-23T07:26:41;20.30;99.90
14769;DHT22;7476;49.404;11.152;2023-05-23T07:29:09;20.40;99.90
14769;DHT22;7476;49.404;11.152;2023-05-23T07:31:35;20.40;99.90
14769;DHT22;7476;49.404;11.152;2023-05-23T07:34:02;20.40;99.90
14769;DHT22;7476;49.404;11.152;2023-05-23T07:36:29;20.40;99.90
14769;DHT22;7476;49.404;11.152;2023-05-23T07:38:58;20.30;99.90
14769;DHT22;7476;49.404;11.152;2023-05-23T07:41:25;20.10;99.90
14769;DHT22;7476;49.404;11.152;2023-05-23T07:43:51;20.00;99.90
14769;DHT22;7476;49.404;11.152;2023-05-23T07:46:19;19.70;99.90
14769;DHT22;7476;49.404;11.152;2023-05-23T07:48:47;19.60;99.90
14769;DHT22;7476;49.404;11.152;2023-05-23T07:51:14;19.80;99.90
14769;DHT22;7476;49.404;11.152;2023-05-23T07:53:45;19.90;99.90
14769;DHT22;7476;49.404;11.152;2023-05-23T07:56:12;20.10;99.90
14769;DHT22;7476;49.404;11.152;2023-05-23T07:58:38;20.50;99.90
14769;DHT22;7476;49.404;11.152;2023-05-23T08:01:05;20.50;99.90
14769;DHT22;7476;49.404;11.152;2023-05-23T08:03:33;20.50;99.90
14769;DHT22;7476;49.404;11.152;2023-05-23T08:06:00;20.60;99.90
14769;DHT22;7476;49.404;11.152;2023-05-23T08:08:27;20.60;99.90
14769;DHT22;7476;49.404;11.152;2023-05-23T08:10:53;20.70;99.90
14769;DHT22;7476;49.404;11.152;2023-05-23T08:13:20;20.70;99.90
14769;DHT22;7476;49.404;11.152;2023-05-23T08:15:46;20.80;99.90
14769;DHT22;7476;49.404;11.152;2023-05-23T08:18:13;20.70;99.90
14769;DHT22;7476;49.404;11.152;2023-05-23T08:20:42;20.50;99.90
14769;DHT22;7476;49.404;11.152;2023-05-23T08:23:09;20.70;99.90
14769;DHT22;7476;49.404;11.152;2023-05-23T08:25:37;21.00;99.90
14769;DHT22;7476;49.404;11.152;2023-05-23T08:28:04;21.60;99.90
14769;DHT22;7476;49.404;11.152;2023-05-23T08:30:30;22.20;99.90
14769;DHT22;7476;49.404;11.152;2023-05-23T08:32:59;22.40;99.90
14769;DHT22;7476;49.404;11.152;2023-05-23T08:35:29;22.70;99.90
14769;DHT22;7476;49.404;11.152;2023-05-23T08:38:01;22.70;99.90
14769;DHT22;7476;49.404;11.152;2023-05-23T08:40:30;22.50;99.90
14769;DHT22;7476;49.404;11.152;2023-05-23T08:42:57;22.40;99.90
14769;DHT22;7476;49.404;11.152;2023-05-23T08:45:24;22.60;99.90
14769;DHT22;7476;49.404;11.152;2023-05-23T08:47:51;22.60;99.90
14769;DHT22;7476;49.404;11.152;2023-05-23T08:50:18;22.40;99.90
14769;DHT22;7476;49.404;11.152;2023-05-23T08:52:52;22.50;99.90
14769;DHT22;7476;49.404;11.152;2023-05-23T08:55:22;22.30;99.90
14769;DHT22;7476;49.404;11.152;2023-05-23T08:57:49;22.10;99.90
14769;DHT22;7476;49.404;11.152;2023-05-23T09:00:16;22.10;99.90
14769;DHT22;7476;49.404;11.152;2023-05-23T09:02:45;22.40;99.90
14769;DHT22;7476;49.404;11.152;2023-05-23T09:05:12;22.50;99.90
14769;DHT22;7476;49.404;11.152;2023-05-23T09:07:39;22.00;99.90
14769;DHT22;7476;49.404;11.152;2023-05-23T09:10:08;22.10;99.90
14769;DHT22;7476;49.404;11.152;2023-05-23T09:12:36;22.30;99.90
14769;DHT22;7476;49.404;11.152;2023-05-23T09:15:03;22.30;99.90
14769;DHT22;7476;49.404;11.152;2023-05-23T09:17:30;22.50;99.90
14769;DHT22;7476;49.404;11.152;2023-05-23T09:19:57;22.20;99.90
14769;DHT22;7476;49.404;11.152;2023-05-23T09:22:25;22.10;99.90
14769;DHT22;7476;49.404;11.152;2023-05-23T09:24:52;21.70;99.90
14769;DHT22;7476;49.404;11.152;2023-05-23T09:27:19;21.50;99.90
14769;DHT22;7476;49.404;11.152;2023-05-23T09:29:48;21.80;99.90
14769;DHT22;7476;49.404;11.152;2023-05-23T09:32:16;22.40;99.90
14769;DHT22;7476;49.404;11.152;2023-05-23T09:34:54;22.70;99.90
14769;DHT22;7476;49.404;11.152;2023-05-23T09:37:21;22.80;99.90
14769;DHT22;7476;49.404;11.152;2023-05-23T09:39:49;23.00;99.90
14769;DHT22;7476;49.404;11.152;2023-05-23T09:42:19;23.40;99.90
14769;DHT22;7476;49.404;11.152;2023-05-23T09:44:48;22.70;99.90
14769;DHT22;7476;49.404;11.152;2023-05-23T09:47:15;22.50;99.90
14769;DHT22;7476;49.404;11.152;2023-05-23T09:49:42;22.20;99.90
14769;DHT22;7476;49.404;11.152;2023-05-23T09:52:09;22.00;99.90
14769;DHT22;7476;49.404;11.152;2023-05-23T09:54:36;22.40;99.90
14769;DHT22;7476;49.404;11.152;2023-05-23T09:57:06;22.60;99.90
14769;DHT22;7476;49.404;11.152;2023-05-23T09:59:37;23.40;99.90
14769;DHT22;7476;49.404;11.152;2023-05-23T10:02:06;23.50;99.90
14769;DHT22;7476;49.404;11.152;2023-05-23T10:04:34;23.00;99.90
14769;DHT22;7476;49.404;11.152;2023-05-23T10:07:06;23.00;99.90
14769;DHT22;7476;49.404;11.152;2023-05-23T10:09:37;23.00;99.90
14769;DHT22;7476;49.404;11.152;2023-05-23T10:15:11;22.80;99.90
14769;DHT22;7476;49.404;11.152;2023-05-23T10:17:50;22.20;99.90
14769;DHT22;7476;49.404;11.152;2023-05-23T10:20:23;21.90;99.90
14769;DHT22;7476;49.404;11.152;2023-05-23T10:22:50;21.90;99.90
14769;DHT22;7476;49.404;11.152;2023-05-23T10:25:17;21.80;99.90
14769;DHT22;7476;49.404;11.152;2023-05-23T10:27:45;22.20;99.90
14769;DHT22;7476;49.404;11.152;2023-05-23T10:30:14;22.70;99.90
14769;DHT22;7476;49.404;11.152;2023-05-23T10:32:42;23.20;99.90
14769;DHT22;7476;49.404;11.152;2023-05-23T10:35:14;23.80;99.90
14769;DHT22;7476;49.404;11.152;2023-05-23T10:37:47;24.40;99.90
14769;DHT22;7476;49.404;11.152;2023-05-23T10:40:22;23.70;99.90
14769;DHT22;7476;49.404;11.152;2023-05-23T10:42:55;23.60;99.90
14769;DHT22;7476;49.404;11.152;2023-05-23T10:45:23;23.80;99.90
14769;DHT22;7476;49.404;11.152;2023-05-23T10:47:52;24.00;99.90
14769;DHT22;7476;49.404;11.152;2023-05-23T10:50:32;24.20;99.90
14769;DHT22;7476;49.404;11.152;2023-05-23T10:53:00;23.80;99.90
14769;DHT22;7476;49.404;11.152;2023-05-23T10:55:31;24.00;99.90
14769;DHT22;7476;49.404;11.152;2023-05-23T10:58:13;24.40;99.90
14769;DHT22;7476;49.404;11.152;2023-05-23T11:00:50;24.60;99.90
14769;DHT22;7476;49.404;11.152;2023-05-23T11:03:29;24.90;99.90
14769;DHT22;7476;49.404;11.152;2023-05-23T11:05:58;24.60;99.90
14769;DHT22;7476;49.404;11.152;2023-05-23T11:08:25;24.60;99.90
14769;DHT22;7476;49.404;11.152;2023-05-23T11:10:53;24.20;99.90
14769;DHT22;7476;49.404;11.152;2023-05-23T11:13:21;23.50;99.90
14769;DHT22;7476;49.404;11.152;2023-05-23T11:15:48;23.00;99.90
14769;DHT22;7476;49.404;11.152;2023-05-23T11:18:22;22.70;99.90
14769;DHT22;7476;49.404;11.152;2023-05-23T11:20:51;23.10;99.90
14769;DHT22;7476;49.404;11.152;2023-05-23T11:23:18;23.60;99.90
14769;DHT22;7476;49.404;11.152;2023-05-23T11:25:48;24.00;99.90
14769;DHT22;7476;49.404;11.152;2023-05-23T11:28:15;24.30;99.90
14769;DHT22;7476;49.404;11.152;2023-05-23T11:30:42;24.30;99.90
14769;DHT22;7476;49.404;11.152;2023-05-23T11:33:09;24.70;99.90
14769;DHT22;7476;49.404;11.152;2023-05-23T11:35:40;24.80;99.90
14769;DHT22;7476;49.404;11.152;2023-05-23T11:38:07;23.70;99.90
14769;DHT22;7476;49.404;11.152;2023-05-23T11:40:35;23.20;99.90
14769;DHT22;7476;49.404;11.152;2023-05-23T11:43:03;22.80;99.90
14769;DHT22;7476;49.404;11.152;2023-05-23T11:45:31;23.00;99.90
14769;DHT22;7476;49.404;11.152;2023-05-23T11:48:04;22.80;99.90
14769;DHT22;7476;49.404;11.152;2023-05-23T11:50:31;22.90;99.90
14769;DHT22;7476;49.404;11.152;2023-05-23T11:52:59;23.30;99.90
14769;DHT22;7476;49.404;11.152;2023-05-23T11:55:26;23.80;99.90
14769;DHT22;7476;49.404;11.152;2023-05-23T11:57:55;24.60;99.90
14769;DHT22;7476;49.404;11.152;2023-05-23T12:00:22;25.20;99.90
14769;DHT22;7476;49.404;11.152;2023-05-23T12:02:48;25.60;99.90
14769;DHT22;7476;49.404;11.152;2023-05-23T12:05:15;26.20;99.90
14769;DHT22;7476;49.404;11.152;2023-05-23T12:07:43;25.30;99.90
14769;DHT22;7476;49.404;11.152;2023-05-23T12:10:12;24.20;99.90
14769;DHT22;7476;49.404;11.152;2023-05-23T12:12:40;23.30;99.90
14769;DHT22;7476;49.404;11.152;2023-05-23T12:15:08;22.70;99.90
14769;DHT22;7476;49.404;11.152;2023-05-23T12:17:35;22.40;99.90
14769;DHT22;7476;49.404;11.152;2023-05-23T12:20:03;22.20;99.90
14769;DHT22;7476;49.404;11.152;2023-05-23T12:22:30;22.10;99.90
14769;DHT22;7476;49.404;11.152;2023-05-23T12:24:56;22.00;99.90
14769;DHT22;7476;49.404;11.152;2023-05-23T12:27:28;22.40;99.90
14769;DHT22;7476;49.404;11.152;2023-05-23T12:30:05;22.60;99.90
14769;DHT22;7476;49.404;11.152;2023-05-23T12:32:32;22.60;99.90
14769;DHT22;7476;49.404;11.152;2023-05-23T12:34:59;23.10;99.90
14769;DHT22;7476;49.404;11.152;2023-05-23T12:37:26;23.80;99.90
14769;DHT22;7476;49.404;11.152;2023-05-23T12:39:54;24.40;99.90
14769;DHT22;7476;49.404;11.152;2023-05-23T12:42:21;23.90;99.90
14769;DHT22;7476;49.404;11.152;2023-05-23T12:44:52;23.80;99.90
14769;DHT22;7476;49.404;11.152;2023-05-23T12:47:18;23.10;99.90
14769;DHT22;7476;49.404;11.152;2023-05-23T12:49:45;23.10;99.90
14769;DHT22;7476;49.404;11.152;2023-05-23T12:52:12;22.50;99.90
14769;DHT22;7476;49.404;11.152;2023-05-23T12:54:39;22.00;99.90
14769;DHT22;7476;49.404;11.152;2023-05-23T12:57:05;21.50;99.90
14769;DHT22;7476;49.404;11.152;2023-05-23T12:59:32;21.00;99.90
14769;DHT22;7476;49.404;11.152;2023-05-23T13:02:00;20.80;99.90
14769;DHT22;7476;49.404;11.152;2023-05-23T13:04:27;20.70;99.90
14769;DHT22;7476;49.404;11.152;2023-05-23T13:06:54;20.70;99.90
14769;DHT22;7476;49.404;11.152;2023-05-23T13:09:20;20.70;99.90
14769;DHT22;7476;49.404;11.152;2023-05-23T13:11:47;20.50;99.90
14769;DHT22;7476;49.404;11.152;2023-05-23T13:14:14;20.70;99.90
14769;DHT22;7476;49.404;11.152;2023-05-23T13:16:41;21.10;99.90
14769;DHT22;7476;49.404;11.152;2023-05-23T13:19:10;21.00;99.90
14769;DHT22;7476;49.404;11.152;2023-05-23T13:21:37;20.80;99.90
14769;DHT22;7476;49.404;11.152;2023-05-23T13:24:04;20.70;99.90
14769;DHT22;7476;49.404;11.152;2023-05-23T13:26:31;20.80;99.90
14769;DHT22;7476;49.404;11.152;2023-05-23T13:28:58;20.80;99.90
14769;DHT22;7476;49.404;11.152;2023-05-23T13:31:25;20.60;99.90
14769;DHT22;7476;49.404;11.152;2023-05-23T13:33:51;20.60;99.90
14769;DHT22;7476;49.404;11.152;2023-05-23T13:36:20;20.70;99.90
14769;DHT22;7476;49.404;11.152;2023-05-23T13:38:46;20.80;99.90
14769;DHT22;7476;49.404;11.152;2023-05-23T13:41:13;21.50;99.90
14769;DHT22;7476;49.404;11.152;2023-05-23T13:43:40;21.20;99.90
14769;DHT22;7476;49.404;11.152;2023-05-23T13:46:07;21.00;99.90
14769;DHT22;7476;49.404;11.152;2023-05-23T13:48:35;21.30;99.90
14769;DHT22;7476;49.404;11.152;2023-05-23T13:51:01;21.10;99.90
14769;DHT22;7476;49.404;11.152;2023-05-23T13:53:29;20.70;99.90
14769;DHT22;7476;49.404;11.152;2023-05-23T13:55:56;20.80;99.90
14769;DHT22;7476;49.404;11.152;2023-05-23T13:58:23;21.20;99.90
14769;DHT22;7476;49.404;11.152;2023-05-23T14:00:51;21.20;99.90
14769;DHT22;7476;49.404;11.152;2023-05-23T14:03:18;21.20;99.90
14769;DHT22;7476;49.404;11.152;2023-05-23T14:05:45;21.10;99.90
14769;DHT22;7476;49.404;11.152;2023-05-23T14:08:12;21.40;99.90
14769;DHT22;7476;49.404;11.152;2023-05-23T14:10:40;21.70;99.90
14769;DHT22;7476;49.404;11.152;2023-05-23T14:13:06;22.10;99.90
14769;DHT22;7476;49.404;11.152;2023-05-23T14:15:33;22.40;99.90
14769;DHT22;7476;49.404;11.152;2023-05-23T14:18:00;22.70;99.90
14769;DHT22;7476;49.404;11.152;2023-05-23T14:20:26;22.50;99.90
14769;DHT22;7476;49.404;11.152;2023-05-23T14:22:54;22.20;99.90
14769;DHT22;7476;49.404;11.152;2023-05-23T14:25:21;21.20;99.90
14769;DHT22;7476;49.404;11.152;2023-05-23T14:27:49;20.80;99.90
14769;DHT22;7476;49.404;11.152;2023-05-23T14:30:15;20.50;99.90
14769;DHT22;7476;49.404;11.152;2023-05-23T14:32:42;20.50;99.90
14769;DHT22;7476;49.404;11.152;2023-05-23T14:35:09;20.10;99.90
14769;DHT22;7476;49.404;11.152;2023-05-23T14:37:36;19.70;99.90
14769;DHT22;7476;49.404;11.152;2023-05-23T14:40:03;20.10;99.90
14769;DHT22;7476;49.404;11.152;2023-05-23T14:42:31;20.50;99.90
14769;DHT22;7476;49.404;11.152;2023-05-23T14:44:59;20.50;99.90
14769;DHT22;7476;49.404;11.152;2023-05-23T14:47:26;21.20;99.90
14769;DHT22;7476;49.404;11.152;2023-05-23T14:49:52;21.30;99.90
14769;DHT22;7476;49.404;11.152;2023-05-23T14:52:19;21.80;99.90
14769;DHT22;7476;49.404;11.152;2023-05-23T14:54:46;21.60;99.90
14769;DHT22;7476;49.404;11.152;2023-05-23T14:57:12;21.80;99.90
14769;DHT22;7476;49.404;11.152;2023-05-23T14:59:39;22.70;99.90
14769;DHT22;7476;49.404;11.152;2023-05-23T15:02:07;24.10;99.90
14769;DHT22;7476;49.404;11.152;2023-05-23T15:04:34;24.20;99.90
14769;DHT22;7476;49.404;11.152;2023-05-23T15:07:01;23.60;99.90
14769;DHT22;7476;49.404;11.152;2023-05-23T15:09:28;23.60;99.90
14769;DHT22;7476;49.404;11.152;2023-05-23T15:11:54;23.80;99.90
14769;DHT22;7476;49.404;11.152;2023-05-23T15:14:21;23.70;99.90
14769;DHT22;7476;49.404;11.152;2023-05-23T15:16:53;24.20;99.90
14769;DHT22;7476;49.404;11.152;2023-05-23T15:19:21;24.60;99.90
14769;DHT22;7476;49.404;11.152;2023-05-23T15:21:48;24.40;99.90
14769;DHT22;7476;49.404;11.152;2023-05-23T15:24:15;23.50;99.90
14769;DHT22;7476;49.404;11.152;2023-05-23T15:26:41;22.90;99.90
14769;DHT22;7476;49.404;11.152;2023-05-23T15:29:08;22.20;99.90
14769;DHT22;7476;49.404;11.152;2023-05-23T15:31:34;22.00;99.90
14769;DHT22;7476;49.404;11.152;2023-05-23T15:34:01;22.70;99.90
14769;DHT22;7476;49.404;11.152;2023-05-23T15:36:29;22.60;99.90